sensor_id;sensor_type;location;lat;lon;timestamp;pressure;altitude;pressure_sealevel;temperature;humidity
79413;BME280;68863;49.528;11.010;2023-05-07T00:00:08;98275.50;;;15.14;61.44
79413;BME280;68863;49.528;11.010;2023-05-07T00:01:08;98280.09;;;15.12;61.88
79413;BME280;68863;49.528;11.010;2023-05-07T00:02:08;98286.09;;;15.24;61.92
79413;BME280;68863;49.528;11.010;2023-05-07T00:03:09;98286.53;;;15.29;61.44
79413;BME280;68863;49.528;11.010;2023-05-07T00:04:09;98279.41;;;15.20;61.61
79413;BME280;68863;49.528;11.010;2023-05-07T00:05:09;98284.16;;;15.26;61.79
79413;BME280;68863;49.528;11.010;2023-05-07T00:06:10;98286.22;;;15.13;62.04
79413;BME280;68863;49.528;11.010;2023-05-07T00:07:12;98279.84;;;15.25;61.63
79413;BME280;68863;49.528;11.010;2023-05-07T00:08:12;98278.59;;;15.29;61.72
79413;BME280;68863;49.528;11.010;2023-05-07T00:09:13;98277.63;;;15.30;61.68
79413;BME280;68863;49.528;11.010;2023-05-07T00:10:13;98282.91;;;15.30;61.87
79413;BME280;68863;49.528;11.010;2023-05-07T00:11:13;98287.06;;;15.33;62.08
79413;BME280;68863;49.528;11.010;2023-05-07T00:12:14;98285.84;;;15.37;61.59
79413;BME280;68863;49.528;11.010;2023-05-07T00:13:14;98277.91;;;15.37;61.96
79413;BME280;68863;49.528;11.010;2023-05-07T00:14:14;98284.41;;;15.33;61.54
79413;BME280;68863;49.528;11.010;2023-05-07T00:15:15;98281.50;;;15.36;61.63
79413;BME280;68863;49.528;11.010;2023-05-07T00:16:15;98284.41;;;15.33;61.61
79413;BME280;68863;49.528;11.010;2023-05-07T00:17:15;98280.81;;;15.34;61.70
79413;BME280;68863;49.528;11.010;2023-05-07T00:18:16;98276.22;;;15.26;62.24
79413;BME280;68863;49.528;11.010;2023-05-07T00:19:16;98281.22;;;15.10;62.73
79413;BME280;68863;49.528;11.010;2023-05-07T00:20:16;98283.56;;;15.13;62.84
79413;BME280;68863;49.528;11.010;2023-05-07T00:21:16;98281.22;;;15.10;62.87
79413;BME280;68863;49.528;11.010;2023-05-07T00:22:17;98275.06;;;15.00;63.13
79413;BME280;68863;49.528;11.010;2023-05-07T00:23:17;98283.97;;;14.99;63.33
79413;BME280;68863;49.528;11.010;2023-05-07T00:24:17;98284.25;;;14.95;63.54
79413;BME280;68863;49.528;11.010;2023-05-07T00:25:18;98285.38;;;15.03;63.05
79413;BME280;68863;49.528;11.010;2023-05-07T00:26:19;98280.34;;;15.09;62.87
79413;BME280;68863;49.528;11.010;2023-05-07T00:27:20;98283.72;;;15.11;62.90
79413;BME280;68863;49.528;11.010;2023-05-07T00:28:20;98284.28;;;15.15;62.54
79413;BME280;68863;49.528;11.010;2023-05-07T00:29:21;98285.38;;;15.03;63.46
79413;BME280;68863;49.528;11.010;2023-05-07T00:30:21;98279.94;;;15.04;63.47
79413;BME280;68863;49.528;11.010;2023-05-07T00:31:21;98288.28;;;15.00;63.93
79413;BME280;68863;49.528;11.010;2023-05-07T00:32:22;98282.78;;;14.82;64.11
79413;BME280;68863;49.528;11.010;2023-05-07T00:33:22;98278.78;;;14.87;63.96
79413;BME280;68863;49.528;11.010;2023-05-07T00:34:22;98277.66;;;14.90;63.65
79413;BME280;68863;49.528;11.010;2023-05-07T00:35:23;98279.78;;;14.96;63.44
79413;BME280;68863;49.528;11.010;2023-05-07T00:36:23;98287.03;;;15.04;62.91
79413;BME280;68863;49.528;11.010;2023-05-07T00:37:23;98285.94;;;15.06;62.79
79413;BME280;68863;49.528;11.010;2023-05-07T00:38:23;98288.00;;;15.03;63.16
79413;BME280;68863;49.528;11.010;2023-05-07T00:39:24;98286.31;;;14.92;63.23
79413;BME280;68863;49.528;11.010;2023-05-07T00:40:24;98298.38;;;14.75;64.05
79413;BME280;68863;49.528;11.010;2023-05-07T00:41:24;98283.38;;;14.85;63.93
79413;BME280;68863;49.528;11.010;2023-05-07T00:42:25;98283.66;;;14.82;63.52
79413;BME280;68863;49.528;11.010;2023-05-07T00:43:25;98289.22;;;14.79;63.75
79413;BME280;68863;49.528;11.010;2023-05-07T00:44:25;98285.06;;;14.86;63.66
79413;BME280;68863;49.528;11.010;2023-05-07T00:45:27;98285.59;;;14.80;63.88
79413;BME280;68863;49.528;11.010;2023-05-07T00:46:28;98282.22;;;14.78;63.93
79413;BME280;68863;49.528;11.010;2023-05-07T00:47:28;98277.09;;;14.77;63.93
79413;BME280;68863;49.528;11.010;2023-05-07T00:48:29;98282.00;;;14.91;63.54
79413;BME280;68863;49.528;11.010;2023-05-07T00:49:41;98279.06;;;14.84;63.79
79413;BME280;68863;49.528;11.010;2023-05-07T00:50:42;98283.66;;;14.82;63.44
79413;BME280;68863;49.528;11.010;2023-05-07T00:51:43;98286.16;;;14.93;63.20
79413;BME280;68863;49.528;11.010;2023-05-07T00:52:44;98281.03;;;14.82;63.10
79413;BME280;68863;49.528;11.010;2023-05-07T00:53:45;98279.03;;;14.75;63.56
79413;BME280;68863;49.528;11.010;2023-05-07T00:54:45;98280.03;;;14.83;63.14
79413;BME280;68863;49.528;11.010;2023-05-07T00:55:45;98272.69;;;14.97;62.73
79413;BME280;68863;49.528;11.010;2023-05-07T00:56:46;98274.53;;;15.06;62.94
79413;BME280;68863;49.528;11.010;2023-05-07T00:57:46;98278.38;;;14.92;62.92
79413;BME280;68863;49.528;11.010;2023-05-07T00:58:47;98278.13;;;15.05;62.51
79413;BME280;68863;49.528;11.010;2023-05-07T00:59:48;98275.06;;;15.00;62.54
79413;BME280;68863;49.528;11.010;2023-05-07T01:00:48;98275.31;;;14.87;62.86
79413;BME280;68863;49.528;11.010;2023-05-07T01:01:48;98281.69;;;14.84;62.90
79413;BME280;68863;49.528;11.010;2023-05-07T01:02:49;98276.16;;;14.97;62.69
79413;BME280;68863;49.528;11.010;2023-05-07T01:03:49;98264.44;;;14.90;62.78
79413;BME280;68863;49.528;11.010;2023-05-07T01:04:49;98270.31;;;14.93;62.99
79413;BME280;68863;49.528;11.010;2023-05-07T01:05:50;98271.59;;;14.99;62.89
79413;BME280;68863;49.528;11.010;2023-05-07T01:06:52;98264.19;;;14.93;62.59
79413;BME280;68863;49.528;11.010;2023-05-07T01:07:54;98264.22;;;15.03;62.59
79413;BME280;68863;49.528;11.010;2023-05-07T01:08:55;98270.19;;;14.95;62.73
79413;BME280;68863;49.528;11.010;2023-05-07T01:09:58;98269.47;;;14.83;63.15
79413;BME280;68863;49.528;11.010;2023-05-07T01:10:59;98262.66;;;14.90;62.69
79413;BME280;68863;49.528;11.010;2023-05-07T01:11:59;98262.69;;;15.00;63.12
79413;BME280;68863;49.528;11.010;2023-05-07T01:13:00;98258.66;;;15.06;62.62
79413;BME280;68863;49.528;11.010;2023-05-07T01:14:01;98262.25;;;14.95;62.57
79413;BME280;68863;49.528;11.010;2023-05-07T01:15:02;98262.47;;;14.73;63.16
79413;BME280;68863;49.528;11.010;2023-05-07T01:16:03;98265.84;;;14.84;62.63
79413;BME280;68863;49.528;11.010;2023-05-07T01:17:04;98267.81;;;14.92;62.66
79413;BME280;68863;49.528;11.010;2023-05-07T01:18:04;98263.09;;;14.95;62.63
79413;BME280;68863;49.528;11.010;2023-05-07T01:19:08;98255.84;;;14.88;62.96
79413;BME280;68863;49.528;11.010;2023-05-07T01:20:11;98255.56;;;14.91;63.20
79413;BME280;68863;49.528;11.010;2023-05-07T01:21:11;98266.41;;;14.98;62.65
79413;BME280;68863;49.528;11.010;2023-05-07T01:22:13;98259.19;;;15.00;62.40
79413;BME280;68863;49.528;11.010;2023-05-07T01:23:16;98264.06;;;15.04;62.24
79413;BME280;68863;49.528;11.010;2023-05-07T01:24:17;98255.69;;;14.89;62.32
79413;BME280;68863;49.528;11.010;2023-05-07T01:25:18;98259.16;;;14.90;62.58
79413;BME280;68863;49.528;11.010;2023-05-07T01:26:20;98260.28;;;14.97;62.12
79413;BME280;68863;49.528;11.010;2023-05-07T01:27:20;98264.34;;;15.01;62.22
79413;BME280;68863;49.528;11.010;2023-05-07T01:28:20;98265.88;;;14.94;62.04
79413;BME280;68863;49.528;11.010;2023-05-07T01:29:21;98266.16;;;15.01;61.75
79413;BME280;68863;49.528;11.010;2023-05-07T01:30:21;98268.06;;;14.79;62.73
79413;BME280;68863;49.528;11.010;2023-05-07T01:31:23;98266.00;;;14.92;61.79
79413;BME280;68863;49.528;11.010;2023-05-07T01:32:29;98264.72;;;14.77;62.26
79413;BME280;68863;49.528;11.010;2023-05-07T01:33:33;98264.44;;;14.90;62.03
79413;BME280;68863;49.528;11.010;2023-05-07T01:34:36;98264.91;;;14.95;61.56
79413;BME280;68863;49.528;11.010;2023-05-07T01:35:42;98267.41;;;14.97;61.21
79413;BME280;68863;49.528;11.010;2023-05-07T01:36:44;98265.72;;;14.95;61.62
79413;BME280;68863;49.528;11.010;2023-05-07T01:37:46;98262.81;;;14.99;61.83
79413;BME280;68863;49.528;11.010;2023-05-07T01:38:46;98261.56;;;15.03;62.02
79413;BME280;68863;49.528;11.010;2023-05-07T01:39:47;98259.75;;;15.03;62.32
79413;BME280;68863;49.528;11.010;2023-05-07T01:40:48;98255.84;;;14.98;62.88
79413;BME280;68863;49.528;11.010;2023-05-07T01:41:49;98260.28;;;14.97;63.32
79413;BME280;68863;49.528;11.010;2023-05-07T01:42:49;98259.06;;;15.01;63.27
79413;BME280;68863;49.528;11.010;2023-05-07T01:43:51;98255.84;;;14.98;63.17
79413;BME280;68863;49.528;11.010;2023-05-07T01:44:52;98255.56;;;14.91;63.51
79413;BME280;68863;49.528;11.010;2023-05-07T01:45:52;98261.94;;;14.79;64.39
79413;BME280;68863;49.528;11.010;2023-05-07T01:46:54;98262.06;;;14.77;64.29
79413;BME280;68863;49.528;11.010;2023-05-07T01:47:55;98258.75;;;14.85;63.96
79413;BME280;68863;49.528;11.010;2023-05-07T01:48:56;98260.53;;;14.75;64.38
79413;BME280;68863;49.528;11.010;2023-05-07T01:49:56;98264.19;;;14.83;63.75
79413;BME280;68863;49.528;11.010;2023-05-07T01:50:58;98256.50;;;14.80;64.17
79413;BME280;68863;49.528;11.010;2023-05-07T01:51:58;98258.91;;;14.93;63.31
79413;BME280;68863;49.528;11.010;2023-05-07T01:52:59;98255.00;;;14.87;63.12
79413;BME280;68863;49.528;11.010;2023-05-07T01:53:59;98253.19;;;14.88;63.26
79413;BME280;68863;49.528;11.010;2023-05-07T01:55:00;98252.50;;;14.95;63.10
79413;BME280;68863;49.528;11.010;2023-05-07T01:56:00;98252.66;;;14.94;62.62
79413;BME280;68863;49.528;11.010;2023-05-07T01:57:00;98255.00;;;14.97;62.73
79413;BME280;68863;49.528;11.010;2023-05-07T01:58:01;98260.25;;;14.78;63.51
79413;BME280;68863;49.528;11.010;2023-05-07T01:59:01;98253.50;;;14.54;64.39
79413;BME280;68863;49.528;11.010;2023-05-07T02:00:02;98258.28;;;14.70;64.36
79413;BME280;68863;49.528;11.010;2023-05-07T02:01:06;98257.91;;;14.75;64.30
79413;BME280;68863;49.528;11.010;2023-05-07T02:02:06;98259.41;;;14.77;64.24
79413;BME280;68863;49.528;11.010;2023-05-07T02:03:06;98257.19;;;14.73;64.29
79413;BME280;68863;49.528;11.010;2023-05-07T02:04:06;98259.34;;;14.58;64.83
79413;BME280;68863;49.528;11.010;2023-05-07T02:05:07;98257.19;;;14.63;65.21
79413;BME280;68863;49.528;11.010;2023-05-07T02:06:07;98256.75;;;14.67;65.00
79413;BME280;68863;49.528;11.010;2023-05-07T02:07:08;98259.00;;;14.72;64.08
79413;BME280;68863;49.528;11.010;2023-05-07T02:08:08;98253.31;;;14.77;64.07
79413;BME280;68863;49.528;11.010;2023-05-07T02:09:08;98256.78;;;14.77;63.79
79413;BME280;68863;49.528;11.010;2023-05-07T02:10:09;98256.38;;;14.82;63.78
79413;BME280;68863;49.528;11.010;2023-05-07T02:11:09;98249.41;;;14.71;63.91
79413;BME280;68863;49.528;11.010;2023-05-07T02:12:10;98250.91;;;14.64;63.56
79413;BME280;68863;49.528;11.010;2023-05-07T02:13:10;98257.28;;;14.52;63.85
79413;BME280;68863;49.528;11.010;2023-05-07T02:14:10;98251.47;;;14.67;63.35
79413;BME280;68863;49.528;11.010;2023-05-07T02:15:11;98247.44;;;14.63;62.66
79413;BME280;68863;49.528;11.010;2023-05-07T02:16:11;98248.69;;;14.69;63.08
79413;BME280;68863;49.528;11.010;2023-05-07T02:17:11;98250.06;;;14.63;62.94
79413;BME280;68863;49.528;11.010;2023-05-07T02:18:11;98254.69;;;14.71;62.80
79413;BME280;68863;49.528;11.010;2023-05-07T02:19:12;98255.94;;;14.77;62.60
79413;BME280;68863;49.528;11.010;2023-05-07T02:20:12;98255.78;;;14.78;62.83
79413;BME280;68863;49.528;11.010;2023-05-07T02:21:13;98251.59;;;14.66;62.86
79413;BME280;68863;49.528;11.010;2023-05-07T02:22:13;98259.53;;;14.66;63.06
79413;BME280;68863;49.528;11.010;2023-05-07T02:23:13;98250.09;;;14.73;62.96
79413;BME280;68863;49.528;11.010;2023-05-07T02:24:14;98251.06;;;14.72;63.27
79413;BME280;68863;49.528;11.010;2023-05-07T02:25:14;98256.78;;;14.77;63.49
79413;BME280;68863;49.528;11.010;2023-05-07T02:26:14;98261.88;;;14.59;63.36
79413;BME280;68863;49.528;11.010;2023-05-07T02:27:14;98260.25;;;14.47;63.39
79413;BME280;68863;49.528;11.010;2023-05-07T02:28:15;98260.75;;;14.52;63.80
79413;BME280;68863;49.528;11.010;2023-05-07T02:29:15;98255.22;;;14.65;63.30
79413;BME280;68863;49.528;11.010;2023-05-07T02:30:15;98263.50;;;14.51;63.75
79413;BME280;68863;49.528;11.010;2023-05-07T02:31:16;98258.03;;;14.42;64.13
79413;BME280;68863;49.528;11.010;2023-05-07T02:32:16;98262.72;;;14.60;63.75
79413;BME280;68863;49.528;11.010;2023-05-07T02:33:16;98259.41;;;14.67;62.98
79413;BME280;68863;49.528;11.010;2023-05-07T02:34:17;98247.97;;;14.57;63.49
79413;BME280;68863;49.528;11.010;2023-05-07T02:35:17;98260.84;;;14.51;63.76
79413;BME280;68863;49.528;11.010;2023-05-07T02:36:17;98256.09;;;14.44;64.02
79413;BME280;68863;49.528;11.010;2023-05-07T02:37:18;98254.94;;;14.37;63.78
79413;BME280;68863;49.528;11.010;2023-05-07T02:38:18;98256.03;;;14.56;63.54
79413;BME280;68863;49.528;11.010;2023-05-07T02:39:18;98254.53;;;14.63;62.79
79413;BME280;68863;49.528;11.010;2023-05-07T02:40:18;98253.81;;;14.61;62.84
79413;BME280;68863;49.528;11.010;2023-05-07T02:41:19;98260.41;;;14.45;63.31
79413;BME280;68863;49.528;11.010;2023-05-07T02:42:20;98253.72;;;14.41;63.71
79413;BME280;68863;49.528;11.010;2023-05-07T02:43:20;98257.97;;;14.54;63.13
79413;BME280;68863;49.528;11.010;2023-05-07T02:44:20;98258.22;;;14.51;63.86
79413;BME280;68863;49.528;11.010;2023-05-07T02:45:20;98256.78;;;14.46;63.67
79413;BME280;68863;49.528;11.010;2023-05-07T02:46:21;98251.59;;;14.56;62.86
79413;BME280;68863;49.528;11.010;2023-05-07T02:47:21;98256.28;;;14.53;63.30
79413;BME280;68863;49.528;11.010;2023-05-07T02:48:22;98250.81;;;14.44;63.31
79413;BME280;68863;49.528;11.010;2023-05-07T02:49:22;98251.06;;;14.41;62.92
79413;BME280;68863;49.528;11.010;2023-05-07T02:50:23;98252.31;;;14.37;63.22
79413;BME280;68863;49.528;11.010;2023-05-07T02:51:23;98254.22;;;14.35;63.21
79413;BME280;68863;49.528;11.010;2023-05-07T02:52:23;98255.38;;;14.42;63.28
79413;BME280;68863;49.528;11.010;2023-05-07T02:53:24;98252.47;;;14.45;62.96
79413;BME280;68863;49.528;11.010;2023-05-07T02:54:29;98253.97;;;14.38;62.81
79413;BME280;68863;49.528;11.010;2023-05-07T02:55:30;98254.91;;;14.28;63.09
79413;BME280;68863;49.528;11.010;2023-05-07T02:56:30;98255.59;;;14.30;63.07
79413;BME280;68863;49.528;11.010;2023-05-07T02:57:30;98261.47;;;14.33;62.54
79413;BME280;68863;49.528;11.010;2023-05-07T02:58:30;98256.22;;;14.43;62.18
79413;BME280;68863;49.528;11.010;2023-05-07T02:59:31;98260.13;;;14.49;62.05
79413;BME280;68863;49.528;11.010;2023-05-07T03:00:31;98249.81;;;14.36;62.28
79413;BME280;68863;49.528;11.010;2023-05-07T03:01:31;98252.00;;;14.31;62.70
79413;BME280;68863;49.528;11.010;2023-05-07T03:02:32;98246.31;;;14.35;62.39
79413;BME280;68863;49.528;11.010;2023-05-07T03:03:32;98249.25;;;14.42;62.02
79413;BME280;68863;49.528;11.010;2023-05-07T03:04:32;98255.25;;;14.44;61.83
79413;BME280;68863;49.528;11.010;2023-05-07T03:05:32;98248.75;;;14.48;62.09
79413;BME280;68863;49.528;11.010;2023-05-07T03:06:33;98252.94;;;14.51;62.16
79413;BME280;68863;49.528;11.010;2023-05-07T03:07:34;98252.00;;;14.52;62.13
79413;BME280;68863;49.528;11.010;2023-05-07T03:08:34;98251.22;;;14.40;62.42
79413;BME280;68863;49.528;11.010;2023-05-07T03:09:35;98254.84;;;14.49;61.94
79413;BME280;68863;49.528;11.010;2023-05-07T03:10:36;98254.84;;;14.49;61.94
79413;BME280;68863;49.528;11.010;2023-05-07T03:11:36;98253.06;;;14.49;62.03
79413;BME280;68863;49.528;11.010;2023-05-07T03:12:37;98251.50;;;14.46;62.11
79413;BME280;68863;49.528;11.010;2023-05-07T03:13:37;98252.06;;;14.40;62.26
79413;BME280;68863;49.528;11.010;2023-05-07T03:14:38;98252.31;;;14.37;62.16
79413;BME280;68863;49.528;11.010;2023-05-07T03:15:38;98250.66;;;14.36;62.28
79413;BME280;68863;49.528;11.010;2023-05-07T03:16:38;98253.56;;;14.43;62.21
79413;BME280;68863;49.528;11.010;2023-05-07T03:17:38;98247.16;;;14.36;62.28
79413;BME280;68863;49.528;11.010;2023-05-07T03:18:39;98245.44;;;14.25;62.46
79413;BME280;68863;49.528;11.010;2023-05-07T03:19:39;98245.72;;;14.22;62.75
79413;BME280;68863;49.528;11.010;2023-05-07T03:20:39;98247.84;;;14.28;62.45
79413;BME280;68863;49.528;11.010;2023-05-07T03:21:40;98243.31;;;14.19;63.08
79413;BME280;68863;49.528;11.010;2023-05-07T03:22:40;98254.34;;;14.24;62.97
79413;BME280;68863;49.528;11.010;2023-05-07T03:23:41;98247.19;;;14.15;63.11
79413;BME280;68863;49.528;11.010;2023-05-07T03:24:41;98248.69;;;14.08;63.62
79413;BME280;68863;49.528;11.010;2023-05-07T03:25:41;98241.09;;;14.14;63.34
79413;BME280;68863;49.528;11.010;2023-05-07T03:26:41;98244.28;;;14.18;63.80
79413;BME280;68863;49.528;11.010;2023-05-07T03:27:42;98245.44;;;14.25;63.29
79413;BME280;68863;49.528;11.010;2023-05-07T03:28:42;98243.91;;;14.22;63.21
79413;BME280;68863;49.528;11.010;2023-05-07T03:29:42;98240.31;;;14.03;63.89
79413;BME280;68863;49.528;11.010;2023-05-07T03:30:43;98245.28;;;14.17;62.82
79413;BME280;68863;49.528;11.010;2023-05-07T03:31:43;98238.59;;;14.13;63.25
79413;BME280;68863;49.528;11.010;2023-05-07T03:32:43;98238.75;;;13.90;63.90
79413;BME280;68863;49.528;11.010;2023-05-07T03:33:55;98240.31;;;14.03;63.26
79413;BME280;68863;49.528;11.010;2023-05-07T03:34:55;98239.69;;;14.10;62.99
79413;BME280;68863;49.528;11.010;2023-05-07T03:35:55;98239.41;;;14.13;62.52
79413;BME280;68863;49.528;11.010;2023-05-07T03:36:56;98241.47;;;14.10;62.85
79413;BME280;68863;49.528;11.010;2023-05-07T03:37:56;98238.41;;;14.05;63.08
79413;BME280;68863;49.528;11.010;2023-05-07T03:38:56;98242.56;;;14.07;63.20
79413;BME280;68863;49.528;11.010;2023-05-07T03:39:56;98236.19;;;14.10;62.88
79413;BME280;68863;49.528;11.010;2023-05-07T03:40:57;98243.41;;;14.08;63.13
79413;BME280;68863;49.528;11.010;2023-05-07T03:41:57;98235.13;;;14.12;63.06
79413;BME280;68863;49.528;11.010;2023-05-07T03:42:59;98238.84;;;14.10;62.90
79413;BME280;68863;49.528;11.010;2023-05-07T03:43:59;98240.59;;;14.00;63.31
79413;BME280;68863;49.528;11.010;2023-05-07T03:45:00;98248.13;;;13.83;63.00
79413;BME280;68863;49.528;11.010;2023-05-07T03:46:00;98244.41;;;13.86;63.10
79413;BME280;68863;49.528;11.010;2023-05-07T03:47:00;98237.84;;;13.80;63.31
79413;BME280;68863;49.528;11.010;2023-05-07T03:48:00;98245.06;;;13.78;63.18
79413;BME280;68863;49.528;11.010;2023-05-07T03:49:01;98242.03;;;13.83;63.13
79413;BME280;68863;49.528;11.010;2023-05-07T03:50:01;98250.91;;;13.82;63.24
79413;BME280;68863;49.528;11.010;2023-05-07T03:51:01;98248.56;;;13.88;62.55
79413;BME280;68863;49.528;11.010;2023-05-07T03:52:02;98249.28;;;13.90;62.47
79413;BME280;68863;49.528;11.010;2023-05-07T03:53:02;98247.50;;;13.91;62.14
79413;BME280;68863;49.528;11.010;2023-05-07T03:54:02;98247.66;;;13.99;62.63
79413;BME280;68863;49.528;11.010;2023-05-07T03:55:03;98251.44;;;13.96;62.31
79413;BME280;68863;49.528;11.010;2023-05-07T03:56:03;98257.66;;;13.95;62.49
79413;BME280;68863;49.528;11.010;2023-05-07T03:57:04;98260.63;;;13.81;62.78
79413;BME280;68863;49.528;11.010;2023-05-07T03:58:04;98264.81;;;13.84;63.21
79413;BME280;68863;49.528;11.010;2023-05-07T03:59:04;98258.56;;;13.85;62.96
79413;BME280;68863;49.528;11.010;2023-05-07T04:00:05;98264.22;;;13.80;62.86
79413;BME280;68863;49.528;11.010;2023-05-07T04:01:06;98261.97;;;13.76;62.69
79413;BME280;68863;49.528;11.010;2023-05-07T04:02:07;98272.31;;;13.88;62.71
79413;BME280;68863;49.528;11.010;2023-05-07T04:03:07;98270.66;;;13.87;62.97
79413;BME280;68863;49.528;11.010;2023-05-07T04:04:08;98270.44;;;14.00;62.15
79413;BME280;68863;49.528;11.010;2023-05-07T04:05:08;98271.97;;;13.93;62.43
79413;BME280;68863;49.528;11.010;2023-05-07T04:06:08;98280.19;;;14.00;62.27
79413;BME280;68863;49.528;11.010;2023-05-07T04:07:09;98268.69;;;14.01;61.98
79413;BME280;68863;49.528;11.010;2023-05-07T04:08:10;98270.59;;;13.98;62.19
79413;BME280;68863;49.528;11.010;2023-05-07T04:09:10;98277.88;;;14.06;62.04
79413;BME280;68863;49.528;11.010;2023-05-07T04:10:10;98277.59;;;14.09;61.94
79413;BME280;68863;49.528;11.010;2023-05-07T04:11:10;98279.75;;;13.94;62.45
79413;BME280;68863;49.528;11.010;2023-05-07T04:12:10;98282.56;;;14.03;61.90
79413;BME280;68863;49.528;11.010;2023-05-07T04:13:11;98283.16;;;14.06;62.45
79413;BME280;68863;49.528;11.010;2023-05-07T04:14:11;98285.06;;;14.04;62.59
79413;BME280;68863;49.528;11.010;2023-05-07T04:15:11;98288.69;;;14.03;62.09
79413;BME280;68863;49.528;11.010;2023-05-07T04:16:11;98295.56;;;13.94;63.00
79413;BME280;68863;49.528;11.010;2023-05-07T04:17:12;98297.78;;;13.89;62.94
79413;BME280;68863;49.528;11.010;2023-05-07T04:18:12;98297.25;;;13.95;62.65
79413;BME280;68863;49.528;11.010;2023-05-07T04:19:12;98295.75;;;14.03;62.02
79413;BME280;68863;49.528;11.010;2023-05-07T04:20:15;98295.97;;;13.90;62.73
79413;BME280;68863;49.528;11.010;2023-05-07T04:21:17;98294.59;;;13.95;62.79
79413;BME280;68863;49.528;11.010;2023-05-07T04:22:18;98303.94;;;14.00;63.00
79413;BME280;68863;49.528;11.010;2023-05-07T04:23:18;98307.41;;;14.00;63.16
79413;BME280;68863;49.528;11.010;2023-05-07T04:24:18;98310.44;;;13.95;62.93
79413;BME280;68863;49.528;11.010;2023-05-07T04:25:18;98305.88;;;13.97;62.74
79413;BME280;68863;49.528;11.010;2023-05-07T04:26:19;98308.56;;;13.86;63.32
79413;BME280;68863;49.528;11.010;2023-05-07T04:27:21;98308.63;;;13.75;63.64
79413;BME280;68863;49.528;11.010;2023-05-07T04:28:21;98300.66;;;13.86;63.60
79413;BME280;68863;49.528;11.010;2023-05-07T04:29:21;98300.56;;;13.77;63.84
79413;BME280;68863;49.528;11.010;2023-05-07T04:30:25;98308.81;;;13.83;63.88
79413;BME280;68863;49.528;11.010;2023-05-07T04:31:25;98304.47;;;13.93;63.33
79413;BME280;68863;49.528;11.010;2023-05-07T04:32:47;98305.94;;;13.86;64.12
79413;BME280;68863;49.528;11.010;2023-05-07T04:33:51;98306.13;;;13.94;63.55
79413;BME280;68863;49.528;11.010;2023-05-07T04:34:51;98306.72;;;13.98;63.57
79413;BME280;68863;49.528;11.010;2023-05-07T04:35:52;98308.81;;;14.04;63.14
79413;BME280;68863;49.528;11.010;2023-05-07T04:36:52;98309.41;;;14.08;63.21
79413;BME280;68863;49.528;11.010;2023-05-07T04:37:53;98302.19;;;14.10;62.92
79413;BME280;68863;49.528;11.010;2023-05-07T04:38:53;98306.50;;;14.11;63.03
79413;BME280;68863;49.528;11.010;2023-05-07T04:39:53;98309.88;;;14.13;63.25
79413;BME280;68863;49.528;11.010;2023-05-07T04:40:53;98307.41;;;14.00;63.78
79413;BME280;68863;49.528;11.010;2023-05-07T04:41:54;98314.78;;;13.96;63.88
79413;BME280;68863;49.528;11.010;2023-05-07T04:42:55;98310.19;;;13.98;64.33
79413;BME280;68863;49.528;11.010;2023-05-07T04:43:55;98314.25;;;14.03;64.33
79413;BME280;68863;49.528;11.010;2023-05-07T04:44:56;98311.59;;;14.03;64.17
79413;BME280;68863;49.528;11.010;2023-05-07T04:45:57;98311.59;;;14.03;64.32
79413;BME280;68863;49.528;11.010;2023-05-07T04:46:57;98319.47;;;13.93;65.20
79413;BME280;68863;49.528;11.010;2023-05-07T04:47:57;98321.00;;;13.95;64.76
79413;BME280;68863;49.528;11.010;2023-05-07T04:48:58;98323.38;;;13.98;64.82
79413;BME280;68863;49.528;11.010;2023-05-07T04:49:58;98312.44;;;14.03;64.60
79413;BME280;68863;49.528;11.010;2023-05-07T04:50:58;98317.31;;;14.08;64.54
79413;BME280;68863;49.528;11.010;2023-05-07T04:51:59;98319.06;;;13.97;65.30
79413;BME280;68863;49.528;11.010;2023-05-07T04:52:59;98323.38;;;13.98;65.19
79413;BME280;68863;49.528;11.010;2023-05-07T04:53:59;98318.59;;;13.92;65.73
79413;BME280;68863;49.528;11.010;2023-05-07T04:55:00;98318.81;;;14.01;65.53
79413;BME280;68863;49.528;11.010;2023-05-07T04:56:00;98319.28;;;14.06;65.57
79413;BME280;68863;49.528;11.010;2023-05-07T04:57:03;98321.75;;;14.07;65.72
79413;BME280;68863;49.528;11.010;2023-05-07T04:58:04;98319.72;;;14.11;65.73
79413;BME280;68863;49.528;11.010;2023-05-07T04:59:05;98322.09;;;14.14;65.61
79413;BME280;68863;49.528;11.010;2023-05-07T05:00:06;98324.22;;;14.20;65.37
79413;BME280;68863;49.528;11.010;2023-05-07T05:01:08;98314.34;;;14.22;63.86
79413;BME280;68863;49.528;11.010;2023-05-07T05:02:10;98317.84;;;14.22;64.29
79413;BME280;68863;49.528;11.010;2023-05-07T05:03:10;98313.28;;;14.25;64.30
79413;BME280;68863;49.528;11.010;2023-05-07T05:04:11;98313.38;;;14.23;64.19
79413;BME280;68863;49.528;11.010;2023-05-07T05:05:11;98311.31;;;14.27;64.53
79413;BME280;68863;49.528;11.010;2023-05-07T05:06:11;98318.94;;;14.20;64.02
79413;BME280;68863;49.528;11.010;2023-05-07T05:07:12;98317.91;;;14.32;63.86
79413;BME280;68863;49.528;11.010;2023-05-07T05:08:12;98315.69;;;14.37;63.80
79413;BME280;68863;49.528;11.010;2023-05-07T05:09:12;98314.53;;;14.30;64.50
79413;BME280;68863;49.528;11.010;2023-05-07T05:10:13;98310.94;;;14.31;64.55
79413;BME280;68863;49.528;11.010;2023-05-07T05:11:13;98317.91;;;14.32;65.42
79413;BME280;68863;49.528;11.010;2023-05-07T05:12:13;98320.41;;;14.34;65.73
79413;BME280;68863;49.528;11.010;2023-05-07T05:13:14;98315.44;;;14.40;65.04
79413;BME280;68863;49.528;11.010;2023-05-07T05:14:14;98314.31;;;14.43;64.83
79413;BME280;68863;49.528;11.010;2023-05-07T05:15:14;98314.78;;;14.48;64.19
79413;BME280;68863;49.528;11.010;2023-05-07T05:16:15;98319.56;;;14.54;64.02
79413;BME280;68863;49.528;11.010;2023-05-07T05:17:15;98322.78;;;14.58;63.30